sensor_id;sensor_type;location;lat;lon;timestamp;P1;durP1;ratioP1;P2;durP2;ratioP2
45887;SDS011;31595;51.418;7.572;2023-03-24T00:01:56;5.85;;;2.65;;
45887;SDS011;31595;51.418;7.572;2023-03-24T00:04:27;6.63;;;3.25;;
45887;SDS011;31595;51.418;7.572;2023-03-24T00:06:59;7.28;;;3.10;;
45887;SDS011;31595;51.418;7.572;2023-03-24T00:09:28;5.72;;;2.35;;
45887;SDS011;31595;51.418;7.572;2023-03-24T00:11:58;5.47;;;2.88;;
45887;SDS011;31595;51.418;7.572;2023-03-24T00:14:27;3.78;;;2.67;;
45887;SDS011;31595;51.418;7.572;2023-03-24T00:16:55;5.63;;;2.60;;
45887;SDS011;31595;51.418;7.572;2023-03-24T00:19:26;4.15;;;2.65;;
45887;SDS011;31595;51.418;7.572;2023-03-24T00:21:54;4.00;;;2.63;;
45887;SDS011;31595;51.418;7.572;2023-03-24T00:24:21;4.68;;;2.50;;
45887;SDS011;31595;51.418;7.572;2023-03-24T00:26:48;5.85;;;2.60;;
45887;SDS011;31595;51.418;7.572;2023-03-24T00:29:16;5.97;;;2.70;;
45887;SDS011;31595;51.418;7.572;2023-03-24T00:34:34;4.00;;;2.28;;
45887;SDS011;31595;51.418;7.572;2023-03-24T00:37:08;5.32;;;2.53;;
45887;SDS011;31595;51.418;7.572;2023-03-24T00:39:44;3.55;;;2.30;;
45887;SDS011;31595;51.418;7.572;2023-03-24T00:42:15;3.55;;;2.22;;
45887;SDS011;31595;51.418;7.572;2023-03-24T00:44:43;4.93;;;2.67;;
45887;SDS011;31595;51.418;7.572;2023-03-24T00:47:13;2.63;;;1.90;;
45887;SDS011;31595;51.418;7.572;2023-03-24T00:49:42;4.28;;;2.22;;
45887;SDS011;31595;51.418;7.572;2023-03-24T00:52:22;3.75;;;2.20;;
45887;SDS011;31595;51.418;7.572;2023-03-24T00:57:35;2.85;;;1.90;;
45887;SDS011;31595;51.418;7.572;2023-03-24T01:00:06;3.25;;;1.92;;
45887;SDS011;31595;51.418;7.572;2023-03-24T01:02:40;2.85;;;1.88;;
45887;SDS011;31595;51.418;7.572;2023-03-24T01:05:20;3.17;;;2.30;;
45887;SDS011;31595;51.418;7.572;2023-03-24T01:07:49;3.60;;;1.92;;
45887;SDS011;31595;51.418;7.572;2023-03-24T01:10:18;3.77;;;1.93;;
45887;SDS011;31595;51.418;7.572;2023-03-24T01:12:50;4.45;;;1.98;;
45887;SDS011;31595;51.418;7.572;2023-03-24T01:15:20;5.40;;;2.70;;
45887;SDS011;31595;51.418;7.572;2023-03-24T01:17:52;4.30;;;2.65;;
45887;SDS011;31595;51.418;7.572;2023-03-24T01:20:27;5.20;;;2.80;;
45887;SDS011;31595;51.418;7.572;2023-03-24T01:22:59;4.55;;;3.00;;
45887;SDS011;31595;51.418;7.572;2023-03-24T01:25:30;5.15;;;2.70;;
45887;SDS011;31595;51.418;7.572;2023-03-24T01:27:58;4.18;;;2.80;;
45887;SDS011;31595;51.418;7.572;2023-03-24T01:30:26;5.78;;;2.67;;
45887;SDS011;31595;51.418;7.572;2023-03-24T01:32:57;3.35;;;2.58;;
45887;SDS011;31595;51.418;7.572;2023-03-24T01:35:25;5.45;;;2.90;;
45887;SDS011;31595;51.418;7.572;2023-03-24T01:37:53;5.22;;;2.75;;
45887;SDS011;31595;51.418;7.572;2023-03-24T01:40:21;3.92;;;3.10;;
45887;SDS011;31595;51.418;7.572;2023-03-24T01:42:53;4.03;;;3.00;;
45887;SDS011;31595;51.418;7.572;2023-03-24T01:48:18;5.40;;;2.90;;
45887;SDS011;31595;51.418;7.572;2023-03-24T01:50:57;5.05;;;2.38;;
45887;SDS011;31595;51.418;7.572;2023-03-24T01:53:35;5.78;;;2.53;;
45887;SDS011;31595;51.418;7.572;2023-03-24T01:56:08;5.65;;;3.13;;
45887;SDS011;31595;51.418;7.572;2023-03-24T01:58:38;4.75;;;2.40;;
45887;SDS011;31595;51.418;7.572;2023-03-24T02:01:12;4.20;;;3.05;;
45887;SDS011;31595;51.418;7.572;2023-03-24T02:03:41;2.90;;;2.15;;
45887;SDS011;31595;51.418;7.572;2023-03-24T02:06:10;3.38;;;2.60;;
45887;SDS011;31595;51.418;7.572;2023-03-24T02:08:45;4.55;;;2.40;;
45887;SDS011;31595;51.418;7.572;2023-03-24T02:11:18;3.45;;;2.65;;
45887;SDS011;31595;51.418;7.572;2023-03-24T02:13:46;3.70;;;2.40;;
45887;SDS011;31595;51.418;7.572;2023-03-24T02:16:21;3.33;;;2.00;;
45887;SDS011;31595;51.418;7.572;2023-03-24T02:19:08;3.53;;;2.50;;
45887;SDS011;31595;51.418;7.572;2023-03-24T02:25:29;3.75;;;2.50;;
45887;SDS011;31595;51.418;7.572;2023-03-24T02:28:31;3.95;;;2.70;;
45887;SDS011;31595;51.418;7.572;2023-03-24T02:40:07;4.60;;;3.55;;
45887;SDS011;31595;51.418;7.572;2023-03-24T02:43:05;4.47;;;2.85;;
45887;SDS011;31595;51.418;7.572;2023-03-24T02:45:59;4.00;;;3.15;;
45887;SDS011;31595;51.418;7.572;2023-03-24T02:48:42;7.40;;;3.72;;
45887;SDS011;31595;51.418;7.572;2023-03-24T02:51:16;3.72;;;3.08;;
45887;SDS011;31595;51.418;7.572;2023-03-24T02:53:53;4.35;;;3.65;;
45887;SDS011;31595;51.418;7.572;2023-03-24T02:56:29;3.85;;;2.75;;
45887;SDS011;31595;51.418;7.572;2023-03-24T02:59:05;4.07;;;3.03;;
45887;SDS011;31595;51.418;7.572;2023-03-24T03:01:37;4.60;;;3.00;;
45887;SDS011;31595;51.418;7.572;2023-03-24T03:04:10;3.90;;;3.08;;
45887;SDS011;31595;51.418;7.572;2023-03-24T03:06:55;5.05;;;3.70;;
45887;SDS011;31595;51.418;7.572;2023-03-24T03:09:31;4.28;;;2.90;;
45887;SDS011;31595;51.418;7.572;2023-03-24T03:12:19;4.80;;;3.35;;
45887;SDS011;31595;51.418;7.572;2023-03-24T03:14:53;4.68;;;2.97;;
45887;SDS011;31595;51.418;7.572;2023-03-24T03:17:31;4.30;;;3.13;;
45887;SDS011;31595;51.418;7.572;2023-03-24T03:20:03;4.60;;;3.38;;
45887;SDS011;31595;51.418;7.572;2023-03-24T03:22:37;5.07;;;3.55;;
45887;SDS011;31595;51.418;7.572;2023-03-24T03:25:10;3.53;;;2.92;;
45887;SDS011;31595;51.418;7.572;2023-03-24T03:27:42;4.32;;;3.22;;
45887;SDS011;31595;51.418;7.572;2023-03-24T03:30:14;3.78;;;3.00;;
45887;SDS011;31595;51.418;7.572;2023-03-24T03:32:47;4.28;;;2.78;;
45887;SDS011;31595;51.418;7.572;2023-03-24T03:35:21;3.83;;;2.90;;
45887;SDS011;31595;51.418;7.572;2023-03-24T03:37:56;3.42;;;2.80;;
45887;SDS011;31595;51.418;7.572;2023-03-24T03:40:34;3.88;;;2.92;;
45887;SDS011;31595;51.418;7.572;2023-03-24T03:43:07;4.93;;;3.17;;
45887;SDS011;31595;51.418;7.572;2023-03-24T03:45:35;3.63;;;2.83;;
45887;SDS011;31595;51.418;7.572;2023-03-24T03:48:03;4.53;;;2.47;;
45887;SDS011;31595;51.418;7.572;2023-03-24T03:50:31;3.97;;;2.47;;
45887;SDS011;31595;51.418;7.572;2023-03-24T03:52:59;3.92;;;2.70;;
45887;SDS011;31595;51.418;7.572;2023-03-24T03:55:27;4.70;;;2.80;;
45887;SDS011;31595;51.418;7.572;2023-03-24T03:57:55;5.47;;;3.00;;
45887;SDS011;31595;51.418;7.572;2023-03-24T04:00:25;5.20;;;3.13;;
45887;SDS011;31595;51.418;7.572;2023-03-24T04:05:50;4.45;;;2.85;;
45887;SDS011;31595;51.418;7.572;2023-03-24T04:08:27;4.75;;;3.03;;
45887;SDS011;31595;51.418;7.572;2023-03-24T04:11:13;3.95;;;2.90;;
45887;SDS011;31595;51.418;7.572;2023-03-24T04:14:02;3.50;;;2.80;;
45887;SDS011;31595;51.418;7.572;2023-03-24T04:16:52;4.50;;;2.97;;
45887;SDS011;31595;51.418;7.572;2023-03-24T04:19:33;5.13;;;3.10;;
45887;SDS011;31595;51.418;7.572;2023-03-24T04:22:18;3.95;;;3.00;;
45887;SDS011;31595;51.418;7.572;2023-03-24T04:24:53;4.72;;;3.60;;
45887;SDS011;31595;51.418;7.572;2023-03-24T04:27:28;4.70;;;3.40;;
45887;SDS011;31595;51.418;7.572;2023-03-24T04:30:06;4.40;;;3.22;;
45887;SDS011;31595;51.418;7.572;2023-03-24T04:32:44;5.43;;;3.83;;
45887;SDS011;31595;51.418;7.572;2023-03-24T04:35:16;4.40;;;3.55;;
45887;SDS011;31595;51.418;7.572;2023-03-24T04:37:51;4.68;;;3.47;;
45887;SDS011;31595;51.418;7.572;2023-03-24T04:40:19;5.50;;;4.00;;
45887;SDS011;31595;51.418;7.572;2023-03-24T04:42:48;4.53;;;3.65;;
45887;SDS011;31595;51.418;7.572;2023-03-24T04:45:19;6.25;;;4.55;;
45887;SDS011;31595;51.418;7.572;2023-03-24T04:47:52;5.53;;;4.20;;
45887;SDS011;31595;51.418;7.572;2023-03-24T04:50:27;5.57;;;4.03;;
45887;SDS011;31595;51.418;7.572;2023-03-24T04:52:56;5.75;;;4.45;;
45887;SDS011;31595;51.418;7.572;2023-03-24T04:55:30;7.18;;;5.28;;
45887;SDS011;31595;51.418;7.572;2023-03-24T04:58:19;6.93;;;6.07;;
45887;SDS011;31595;51.418;7.572;2023-03-24T05:03:17;12.85;;;6.60;;
45887;SDS011;31595;51.418;7.572;2023-03-24T05:05:46;13.23;;;7.57;;
45887;SDS011;31595;51.418;7.572;2023-03-24T05:08:18;8.70;;;7.90;;
45887;SDS011;31595;51.418;7.572;2023-03-24T05:10:46;8.95;;;6.93;;
45887;SDS011;31595;51.418;7.572;2023-03-24T05:13:13;8.43;;;6.95;;
45887;SDS011;31595;51.418;7.572;2023-03-24T05:15:41;9.07;;;7.60;;
45887;SDS011;31595;51.418;7.572;2023-03-24T05:18:09;9.88;;;5.70;;
45887;SDS011;31595;51.418;7.572;2023-03-24T05:20:38;5.97;;;4.68;;
45887;SDS011;31595;51.418;7.572;2023-03-24T05:23:05;4.75;;;3.40;;
45887;SDS011;31595;51.418;7.572;2023-03-24T05:25:42;4.80;;;3.85;;
45887;SDS011;31595;51.418;7.572;2023-03-24T05:28:12;10.23;;;4.53;;
45887;SDS011;31595;51.418;7.572;2023-03-24T05:30:40;4.90;;;4.13;;
45887;SDS011;31595;51.418;7.572;2023-03-24T05:33:10;5.93;;;4.80;;
45887;SDS011;31595;51.418;7.572;2023-03-24T05:35:39;7.05;;;4.65;;
45887;SDS011;31595;51.418;7.572;2023-03-24T05:38:07;5.25;;;4.53;;
45887;SDS011;31595;51.418;7.572;2023-03-24T05:40:35;5.07;;;4.50;;
45887;SDS011;31595;51.418;7.572;2023-03-24T05:45:32;6.70;;;4.82;;
45887;SDS011;31595;51.418;7.572;2023-03-24T05:48:03;6.70;;;5.15;;
45887;SDS011;31595;51.418;7.572;2023-03-24T05:50:33;5.70;;;5.10;;
45887;SDS011;31595;51.418;7.572;2023-03-24T05:53:03;4.40;;;2.97;;
45887;SDS011;31595;51.418;7.572;2023-03-24T05:55:30;4.97;;;3.40;;
45887;SDS011;31595;51.418;7.572;2023-03-24T05:57:57;4.95;;;3.05;;
45887;SDS011;31595;51.418;7.572;2023-03-24T06:00:29;6.75;;;4.18;;
45887;SDS011;31595;51.418;7.572;2023-03-24T06:02:58;4.28;;;3.00;;
45887;SDS011;31595;51.418;7.572;2023-03-24T06:05:26;4.70;;;2.75;;
45887;SDS011;31595;51.418;7.572;2023-03-24T06:07:54;4.25;;;2.50;;
45887;SDS011;31595;51.418;7.572;2023-03-24T06:10:25;3.90;;;2.53;;
45887;SDS011;31595;51.418;7.572;2023-03-24T06:12:53;4.05;;;2.40;;
45887;SDS011;31595;51.418;7.572;2023-03-24T06:15:21;5.07;;;2.50;;
45887;SDS011;31595;51.418;7.572;2023-03-24T06:17:52;5.95;;;2.42;;
45887;SDS011;31595;51.418;7.572;2023-03-24T06:20:20;3.70;;;2.20;;
45887;SDS011;31595;51.418;7.572;2023-03-24T06:22:48;4.20;;;2.30;;
45887;SDS011;31595;51.418;7.572;2023-03-24T06:25:25;4.50;;;2.40;;
45887;SDS011;31595;51.418;7.572;2023-03-24T06:27:57;4.70;;;2.85;;
45887;SDS011;31595;51.418;7.572;2023-03-24T06:30:42;5.20;;;3.05;;
45887;SDS011;31595;51.418;7.572;2023-03-24T06:36:00;3.67;;;2.67;;
45887;SDS011;31595;51.418;7.572;2023-03-24T06:38:28;3.47;;;2.60;;
45887;SDS011;31595;51.418;7.572;2023-03-24T06:41:00;4.78;;;2.65;;
45887;SDS011;31595;51.418;7.572;2023-03-24T06:43:32;5.03;;;2.80;;
45887;SDS011;31595;51.418;7.572;2023-03-24T06:46:00;4.05;;;2.65;;
45887;SDS011;31595;51.418;7.572;2023-03-24T06:48:30;5.90;;;3.08;;
45887;SDS011;31595;51.418;7.572;2023-03-24T06:51:01;6.15;;;3.20;;
45887;SDS011;31595;51.418;7.572;2023-03-24T06:53:31;4.90;;;2.70;;
45887;SDS011;31595;51.418;7.572;2023-03-24T06:56:04;3.35;;;2.58;;
45887;SDS011;31595;51.418;7.572;2023-03-24T06:58:32;3.78;;;1.80;;
45887;SDS011;31595;51.418;7.572;2023-03-24T07:01:00;4.72;;;2.25;;
45887;SDS011;31595;51.418;7.572;2023-03-24T07:03:28;4.75;;;2.17;;
45887;SDS011;31595;51.418;7.572;2023-03-24T07:05:57;4.40;;;1.80;;
45887;SDS011;31595;51.418;7.572;2023-03-24T07:08:25;4.25;;;2.00;;
45887;SDS011;31595;51.418;7.572;2023-03-24T07:10:53;3.17;;;1.50;;
45887;SDS011;31595;51.418;7.572;2023-03-24T07:13:23;3.67;;;1.70;;
45887;SDS011;31595;51.418;7.572;2023-03-24T07:15:52;3.67;;;1.55;;
45887;SDS011;31595;51.418;7.572;2023-03-24T07:20:50;4.20;;;1.40;;
45887;SDS011;31595;51.418;7.572;2023-03-24T07:23:18;4.40;;;1.50;;
45887;SDS011;31595;51.418;7.572;2023-03-24T07:25:46;5.00;;;1.77;;
45887;SDS011;31595;51.418;7.572;2023-03-24T07:28:13;5.35;;;2.00;;
45887;SDS011;31595;51.418;7.572;2023-03-24T07:30:45;7.57;;;2.00;;
45887;SDS011;31595;51.418;7.572;2023-03-24T07:33:12;4.68;;;1.77;;
45887;SDS011;31595;51.418;7.572;2023-03-24T07:35:46;4.28;;;1.83;;
45887;SDS011;31595;51.418;7.572;2023-03-24T07:38:14;6.60;;;2.28;;
45887;SDS011;31595;51.418;7.572;2023-03-24T07:40:41;6.15;;;1.75;;
45887;SDS011;31595;51.418;7.572;2023-03-24T07:43:09;7.32;;;1.95;;
45887;SDS011;31595;51.418;7.572;2023-03-24T07:45:37;6.40;;;1.90;;
45887;SDS011;31595;51.418;7.572;2023-03-24T07:48:07;6.50;;;1.92;;
45887;SDS011;31595;51.418;7.572;2023-03-24T07:50:34;5.97;;;1.65;;
45887;SDS011;31595;51.418;7.572;2023-03-24T07:53:02;6.25;;;2.00;;
45887;SDS011;31595;51.418;7.572;2023-03-24T07:55:32;6.88;;;1.83;;
45887;SDS011;31595;51.418;7.572;2023-03-24T07:57:59;5.03;;;1.60;;
45887;SDS011;31595;51.418;7.572;2023-03-24T08:00:27;6.00;;;1.70;;
45887;SDS011;31595;51.418;7.572;2023-03-24T08:02:58;6.22;;;1.80;;
45887;SDS011;31595;51.418;7.572;2023-03-24T08:05:30;6.10;;;1.75;;
45887;SDS011;31595;51.418;7.572;2023-03-24T08:08:05;5.70;;;1.70;;
45887;SDS011;31595;51.418;7.572;2023-03-24T08:10:33;4.15;;;1.58;;
45887;SDS011;31595;51.418;7.572;2023-03-24T08:13:04;6.30;;;1.85;;
45887;SDS011;31595;51.418;7.572;2023-03-24T08:15:34;7.13;;;2.30;;
45887;SDS011;31595;51.418;7.572;2023-03-24T08:18:05;5.47;;;1.90;;
45887;SDS011;31595;51.418;7.572;2023-03-24T08:20:37;6.57;;;1.88;;
45887;SDS011;31595;51.418;7.572;2023-03-24T08:25:33;5.20;;;1.80;;
45887;SDS011;31595;51.418;7.572;2023-03-24T08:28:02;6.60;;;2.00;;
45887;SDS011;31595;51.418;7.572;2023-03-24T08:30:32;7.25;;;1.92;;
45887;SDS011;31595;51.418;7.572;2023-03-24T08:33:01;6.27;;;1.93;;
45887;SDS011;31595;51.418;7.572;2023-03-24T08:35:33;4.80;;;1.67;;
45887;SDS011;31595;51.418;7.572;2023-03-24T08:38:06;4.88;;;1.73;;
45887;SDS011;31595;51.418;7.572;2023-03-24T08:40:38;6.78;;;2.00;;
45887;SDS011;31595;51.418;7.572;2023-03-24T08:43:14;7.38;;;2.00;;
45887;SDS011;31595;51.418;7.572;2023-03-24T08:45:49;6.57;;;2.00;;
45887;SDS011;31595;51.418;7.572;2023-03-24T08:48:18;6.68;;;1.90;;
45887;SDS011;31595;51.418;7.572;2023-03-24T08:50:49;5.32;;;1.85;;
45887;SDS011;31595;51.418;7.572;2023-03-24T08:53:32;4.70;;;1.95;;
45887;SDS011;31595;51.418;7.572;2023-03-24T08:56:03;4.13;;;1.73;;
45887;SDS011;31595;51.418;7.572;2023-03-24T08:58:43;6.72;;;2.10;;
45887;SDS011;31595;51.418;7.572;2023-03-24T09:01:24;6.70;;;1.98;;
45887;SDS011;31595;51.418;7.572;2023-03-24T09:03:53;4.55;;;1.90;;
45887;SDS011;31595;51.418;7.572;2023-03-24T09:06:24;6.82;;;2.35;;
45887;SDS011;31595;51.418;7.572;2023-03-24T09:08:54;8.80;;;2.63;;
45887;SDS011;31595;51.418;7.572;2023-03-24T09:13:49;4.95;;;2.30;;
45887;SDS011;31595;51.418;7.572;2023-03-24T09:16:24;9.48;;;2.65;;
45887;SDS011;31595;51.418;7.572;2023-03-24T09:18:57;8.07;;;2.30;;
45887;SDS011;31595;51.418;7.572;2023-03-24T09:21:25;7.50;;;2.33;;
45887;SDS011;31595;51.418;7.572;2023-03-24T09:23:54;7.20;;;2.35;;
45887;SDS011;31595;51.418;7.572;2023-03-24T09:26:39;6.25;;;2.33;;
45887;SDS011;31595;51.418;7.572;2023-03-24T09:29:19;5.93;;;2.25;;
45887;SDS011;31595;51.418;7.572;2023-03-24T09:31:57;6.55;;;2.45;;
45887;SDS011;31595;51.418;7.572;2023-03-24T09:34:31;5.30;;;2.40;;
45887;SDS011;31595;51.418;7.572;2023-03-24T09:37:06;9.02;;;2.47;;
45887;SDS011;31595;51.418;7.572;2023-03-24T09:39:38;5.97;;;2.80;;
45887;SDS011;31595;51.418;7.572;2023-03-24T09:42:13;4.72;;;2.38;;
45887;SDS011;31595;51.418;7.572;2023-03-24T09:44:48;5.57;;;2.88;;
45887;SDS011;31595;51.418;7.572;2023-03-24T09:47:32;5.93;;;2.20;;
45887;SDS011;31595;51.418;7.572;2023-03-24T09:50:06;4.53;;;2.15;;
45887;SDS011;31595;51.418;7.572;2023-03-24T09:52:43;6.43;;;2.58;;
45887;SDS011;31595;51.418;7.572;2023-03-24T09:55:34;6.78;;;2.22;;
45887;SDS011;31595;51.418;7.572;2023-03-24T09:58:10;5.68;;;2.45;;
45887;SDS011;31595;51.418;7.572;2023-03-24T10:03:21;8.07;;;2.42;;
45887;SDS011;31595;51.418;7.572;2023-03-24T10:06:05;6.00;;;2.05;;
45887;SDS011;31595;51.418;7.572;2023-03-24T10:09:13;5.40;;;2.20;;
45887;SDS011;31595;51.418;7.572;2023-03-24T10:11:58;7.40;;;2.22;;
45887;SDS011;31595;51.418;7.572;2023-03-24T10:17:34;5.68;;;1.92;;
45887;SDS011;31595;51.418;7.572;2023-03-24T10:20:26;8.95;;;2.70;;
45887;SDS011;31595;51.418;7.572;2023-03-24T10:26:14;5.22;;;2.10;;
45887;SDS011;31595;51.418;7.572;2023-03-24T10:29:21;4.40;;;2.30;;
45887;SDS011;31595;51.418;7.572;2023-03-24T10:31:58;7.00;;;2.13;;
45887;SDS011;31595;51.418;7.572;2023-03-24T10:38:12;5.15;;;1.67;;
45887;SDS011;31595;51.418;7.572;2023-03-24T10:40:43;4.88;;;1.65;;
45887;SDS011;31595;51.418;7.572;2023-03-24T10:45:42;7.70;;;2.47;;
45887;SDS011;31595;51.418;7.572;2023-03-24T10:48:33;5.60;;;2.38;;
45887;SDS011;31595;51.418;7.572;2023-03-24T10:51:21;5.30;;;2.15;;
45887;SDS011;31595;51.418;7.572;2023-03-24T10:54:08;5.28;;;2.10;;
45887;SDS011;31595;51.418;7.572;2023-03-24T10:57:01;6.90;;;1.83;;
45887;SDS011;31595;51.418;7.572;2023-03-24T10:59:54;5.85;;;2.20;;
45887;SDS011;31595;51.418;7.572;2023-03-24T11:02:26;4.88;;;1.83;;
45887;SDS011;31595;51.418;7.572;2023-03-24T11:05:11;5.75;;;2.25;;
45887;SDS011;31595;51.418;7.572;2023-03-24T11:07:47;6.18;;;2.20;;
45887;SDS011;31595;51.418;7.572;2023-03-24T11:10:32;6.45;;;2.22;;
45887;SDS011;31595;51.418;7.572;2023-03-24T11:13:00;5.13;;;2.30;;
45887;SDS011;31595;51.418;7.572;2023-03-24T11:15:30;5.30;;;1.80;;
45887;SDS011;31595;51.418;7.572;2023-03-24T11:20:54;8.13;;;1.92;;
45887;SDS011;31595;51.418;7.572;2023-03-24T11:23:29;7.28;;;2.20;;
45887;SDS011;31595;51.418;7.572;2023-03-24T11:26:02;6.95;;;2.40;;
45887;SDS011;31595;51.418;7.572;2023-03-24T11:28:49;7.03;;;2.40;;
45887;SDS011;31595;51.418;7.572;2023-03-24T11:32:43;6.82;;;1.80;;
45887;SDS011;31595;51.418;7.572;2023-03-24T11:34:58;6.07;;;2.40;;
45887;SDS011;31595;51.418;7.572;2023-03-24T11:37:45;6.10;;;1.88;;
45887;SDS011;31595;51.418;7.572;2023-03-24T11:40:15;7.13;;;2.50;;
45887;SDS011;31595;51.418;7.572;2023-03-24T11:42:46;5.65;;;2.03;;
45887;SDS011;31595;51.418;7.572;2023-03-24T11:45:19;6.63;;;2.45;;
45887;SDS011;31595;51.418;7.572;2023-03-24T11:48:03;6.80;;;2.10;;
45887;SDS011;31595;51.418;7.572;2023-03-24T11:50:41;7.45;;;2.22;;
45887;SDS011;31595;51.418;7.572;2023-03-24T11:53:22;5.97;;;2.30;;
45887;SDS011;31595;51.418;7.572;2023-03-24T11:55:56;6.28;;;3.22;;
45887;SDS011;31595;51.418;7.572;2023-03-24T11:58:55;5.25;;;1.70;;
45887;SDS011;31595;51.418;7.572;2023-03-24T12:01:47;4.60;;;1.55;;
45887;SDS011;31595;51.418;7.572;2023-03-24T12:04:31;6.10;;;2.55;;
45887;SDS011;31595;51.418;7.572;2023-03-24T12:07:28;4.28;;;1.70;;
45887;SDS011;31595;51.418;7.572;2023-03-24T12:10:14;4.53;;;1.45;;
45887;SDS011;31595;51.418;7.572;2023-03-24T12:12:56;4.22;;;1.63;;
45887;SDS011;31595;51.418;7.572;2023-03-24T12:16:36;6.95;;;2.30;;
45887;SDS011;31595;51.418;7.572;2023-03-24T12:22:10;4.35;;;1.67;;
45887;SDS011;31595;51.418;7.572;2023-03-24T12:25:20;3.92;;;1.65;;
45887;SDS011;31595;51.418;7.572;2023-03-24T12:28:05;4.57;;;1.60;;
45887;SDS011;31595;51.418;7.572;2023-03-24T12:31:11;5.10;;;1.90;;
45887;SDS011;31595;51.418;7.572;2023-03-24T12:33:55;4.05;;;1.58;;
45887;SDS011;31595;51.418;7.572;2023-03-24T12:37:06;4.40;;;1.80;;
45887;SDS011;31595;51.418;7.572;2023-03-24T12:39:46;7.13;;;1.63;;
45887;SDS011;31595;51.418;7.572;2023-03-24T12:42:29;3.67;;;1.70;;
45887;SDS011;31595;51.418;7.572;2023-03-24T12:45:21;5.30;;;1.48;;
45887;SDS011;31595;51.418;7.572;2023-03-24T12:48:19;4.00;;;1.92;;
45887;SDS011;31595;51.418;7.572;2023-03-24T12:51:10;4.03;;;1.73;;
45887;SDS011;31595;51.418;7.572;2023-03-24T12:53:54;3.13;;;1.52;;
45887;SDS011;31595;51.418;7.572;2023-03-24T12:56:57;4.40;;;1.67;;
45887;SDS011;31595;51.418;7.572;2023-03-24T13:02:29;5.68;;;1.83;;
45887;SDS011;31595;51.418;7.572;2023-03-24T13:05:22;4.43;;;1.52;;
45887;SDS011;31595;51.418;7.572;2023-03-24T13:08:32;7.10;;;1.77;;
45887;SDS011;31595;51.418;7.572;2023-03-24T13:11:10;4.15;;;1.90;;
45887;SDS011;31595;51.418;7.572;2023-03-24T13:13:45;6.13;;;1.77;;
45887;SDS011;31595;51.418;7.572;2023-03-24T13:16:38;6.25;;;1.88;;
45887;SDS011;31595;51.418;7.572;2023-03-24T13:22:20;6.20;;;1.80;;
45887;SDS011;31595;51.418;7.572;2023-03-24T13:24:56;6.18;;;2.17;;
45887;SDS011;31595;51.418;7.572;2023-03-24T13:27:25;5.38;;;1.55;;
45887;SDS011;31595;51.418;7.572;2023-03-24T13:30:17;3.92;;;1.60;;
45887;SDS011;31595;51.418;7.572;2023-03-24T13:33:02;4.70;;;1.73;;
45887;SDS011;31595;51.418;7.572;2023-03-24T13:35:44;4.70;;;1.52;;
45887;SDS011;31595;51.418;7.572;2023-03-24T13:38:34;6.50;;;1.83;;
45887;SDS011;31595;51.418;7.572;2023-03-24T13:41:20;5.90;;;2.05;;
45887;SDS011;31595;51.418;7.572;2023-03-24T13:43:56;4.13;;;1.65;;
45887;SDS011;31595;51.418;7.572;2023-03-24T13:46:27;5.07;;;1.70;;
45887;SDS011;31595;51.418;7.572;2023-03-24T13:49:07;8.97;;;2.00;;
45887;SDS011;31595;51.418;7.572;2023-03-24T13:51:43;6.95;;;2.05;;
45887;SDS011;31595;51.418;7.572;2023-03-24T13:54:18;6.00;;;1.80;;
45887;SDS011;31595;51.418;7.572;2023-03-24T13:57:06;5.97;;;1.63;;
45887;SDS011;31595;51.418;7.572;2023-03-24T13:59:40;4.32;;;1.77;;
45887;SDS011;31595;51.418;7.572;2023-03-24T14:05:57;6.35;;;1.85;;
45887;SDS011;31595;51.418;7.572;2023-03-24T14:08:39;3.53;;;1.30;;
45887;SDS011;31595;51.418;7.572;2023-03-24T14:14:19;3.30;;;1.70;;
45887;SDS011;31595;51.418;7.572;2023-03-24T14:17:10;4.80;;;2.22;;
45887;SDS011;31595;51.418;7.572;2023-03-24T14:20:01;5.50;;;2.00;;
45887;SDS011;31595;51.418;7.572;2023-03-24T14:22:43;6.25;;;1.80;;
45887;SDS011;31595;51.418;7.572;2023-03-24T14:25:25;4.28;;;1.30;;
45887;SDS011;31595;51.418;7.572;2023-03-24T14:28:05;3.85;;;1.42;;
45887;SDS011;31595;51.418;7.572;2023-03-24T14:31:18;7.55;;;2.20;;
45887;SDS011;31595;51.418;7.572;2023-03-24T14:33:57;4.75;;;1.52;;
45887;SDS011;31595;51.418;7.572;2023-03-24T14:36:43;6.05;;;1.40;;
45887;SDS011;31595;51.418;7.572;2023-03-24T14:39:42;4.20;;;1.27;;
45887;SDS011;31595;51.418;7.572;2023-03-24T14:48:37;6.28;;;1.58;;
45887;SDS011;31595;51.418;7.572;2023-03-24T14:54:11;2.05;;;1.00;;
45887;SDS011;31595;51.418;7.572;2023-03-24T14:56:44;2.60;;;1.02;;
45887;SDS011;31595;51.418;7.572;2023-03-24T14:59:26;3.28;;;1.33;;
45887;SDS011;31595;51.418;7.572;2023-03-24T15:02:14;2.03;;;0.90;;
45887;SDS011;31595;51.418;7.572;2023-03-24T15:05:16;4.57;;;1.30;;
45887;SDS011;31595;51.418;7.572;2023-03-24T15:10:43;2.60;;;0.93;;
45887;SDS011;31595;51.418;7.572;2023-03-24T15:13:32;2.78;;;0.88;;
45887;SDS011;31595;51.418;7.572;2023-03-24T15:16:18;3.30;;;1.00;;
45887;SDS011;31595;51.418;7.572;2023-03-24T15:19:20;6.53;;;1.33;;
45887;SDS011;31595;51.418;7.572;2023-03-24T15:21:55;2.83;;;1.00;;
45887;SDS011;31595;51.418;7.572;2023-03-24T15:24:27;4.07;;;1.10;;
45887;SDS011;31595;51.418;7.572;2023-03-24T15:27:13;3.95;;;1.48;;
45887;SDS011;31595;51.418;7.572;2023-03-24T15:29:55;5.10;;;1.40;;
45887;SDS011;31595;51.418;7.572;2023-03-24T15:32:49;4.10;;;0.98;;
45887;SDS011;31595;51.418;7.572;2023-03-24T15:35:23;5.97;;;1.23;;
45887;SDS011;31595;51.418;7.572;2023-03-24T15:38:05;3.53;;;1.23;;
45887;SDS011;31595;51.418;7.572;2023-03-24T15:40:34;6.38;;;1.35;;
45887;SDS011;31595;51.418;7.572;2023-03-24T15:43:05;3.85;;;1.20;;
45887;SDS011;31595;51.418;7.572;2023-03-24T15:45:48;7.20;;;1.95;;
45887;SDS011;31595;51.418;7.572;2023-03-24T15:48:24;3.22;;;1.02;;
45887;SDS011;31595;51.418;7.572;2023-03-24T15:54:01;5.32;;;1.30;;
45887;SDS011;31595;51.418;7.572;2023-03-24T15:56:42;5.45;;;1.40;;
45887;SDS011;31595;51.418;7.572;2023-03-24T15:59:24;4.00;;;1.40;;
45887;SDS011;31595;51.418;7.572;2023-03-24T16:06:11;5.05;;;1.30;;
45887;SDS011;31595;51.418;7.572;2023-03-24T16:08:34;5.28;;;1.70;;
45887;SDS011;31595;51.418;7.572;2023-03-24T16:11:25;4.35;;;1.70;;
45887;SDS011;31595;51.418;7.572;2023-03-24T16:14:00;5.55;;;1.60;;
45887;SDS011;31595;51.418;7.572;2023-03-24T16:17:02;3.45;;;1.25;;
45887;SDS011;31595;51.418;7.572;2023-03-24T16:20:08;6.07;;;1.70;;
45887;SDS011;31595;51.418;7.572;2023-03-24T16:22:49;5.18;;;2.08;;
45887;SDS011;31595;51.418;7.572;2023-03-24T16:25:45;6.07;;;2.20;;
45887;SDS011;31595;51.418;7.572;2023-03-24T16:28:24;3.58;;;1.40;;
45887;SDS011;31595;51.418;7.572;2023-03-24T16:31:03;5.47;;;2.00;;
45887;SDS011;31595;51.418;7.572;2023-03-24T16:34:21;4.47;;;1.73;;
45887;SDS011;31595;51.418;7.572;2023-03-24T16:36:56;13.93;;;2.15;;
45887;SDS011;31595;51.418;7.572;2023-03-24T16:39:33;6.32;;;1.60;;
45887;SDS011;31595;51.418;7.572;2023-03-24T16:42:01;5.00;;;1.80;;
45887;SDS011;31595;51.418;7.572;2023-03-24T16:44:39;4.78;;;1.30;;
45887;SDS011;31595;51.418;7.572;2023-03-24T16:47:57;4.38;;;1.35;;
45887;SDS011;31595;51.418;7.572;2023-03-24T16:51:01;4.07;;;1.60;;
45887;SDS011;31595;51.418;7.572;2023-03-24T16:53:42;3.88;;;1.88;;
45887;SDS011;31595;51.418;7.572;2023-03-24T16:56:30;5.88;;;1.80;;
45887;SDS011;31595;51.418;7.572;2023-03-24T16:59:18;3.90;;;1.60;;
45887;SDS011;31595;51.418;7.572;2023-03-24T17:01:54;6.50;;;2.20;;
45887;SDS011;31595;51.418;7.572;2023-03-24T17:04:37;4.53;;;2.00;;
45887;SDS011;31595;51.418;7.572;2023-03-24T17:07:18;3.25;;;1.70;;
45887;SDS011;31595;51.418;7.572;2023-03-24T17:10:08;3.42;;;1.23;;
45887;SDS011;31595;51.418;7.572;2023-03-24T17:15:08;5.18;;;1.70;;
45887;SDS011;31595;51.418;7.572;2023-03-24T17:17:47;3.88;;;1.30;;
45887;SDS011;31595;51.418;7.572;2023-03-24T17:20:32;5.15;;;1.40;;
45887;SDS011;31595;51.418;7.572;2023-03-24T17:23:31;2.60;;;1.08;;